createdAt,value
2022-09-25T00:02:21.039Z,60.79
2022-09-25T00:04:48.660Z,60.86
2022-09-25T00:07:16.045Z,61.55
2022-09-25T00:09:43.390Z,61.21
2022-09-25T00:12:10.969Z,61.05
2022-09-25T00:14:38.286Z,62.30
2022-09-25T00:17:05.655Z,61.83
2022-09-25T00:19:51.542Z,62.06
2022-09-25T00:22:19.567Z,61.94
2022-09-25T00:24:47.564Z,61.28
2022-09-25T00:27:15.336Z,61.66
2022-09-25T00:29:42.745Z,62.07
2022-09-25T00:32:11.305Z,61.32
2022-09-25T00:34:38.801Z,61.55
2022-09-25T00:37:06.375Z,61.42
2022-09-25T00:39:34.047Z,61.30
2022-09-25T00:42:01.396Z,60.77
2022-09-25T00:44:56.861Z,60.50
2022-09-25T00:47:49.282Z,60.62
2022-09-25T00:50:26.935Z,60.95
2022-09-25T00:52:55.429Z,61.31
2022-09-25T00:55:23.963Z,60.95
2022-09-25T00:57:53.240Z,60.57
2022-09-25T01:00:20.837Z,60.75
2022-09-25T01:02:53.282Z,60.61
2022-09-25T01:05:24.513Z,61.33
2022-09-25T01:07:52.280Z,62.13
2022-09-25T01:10:20.379Z,60.82
2022-09-25T01:12:48.537Z,60.45
2022-09-25T01:15:17.664Z,60.15
2022-09-25T01:18:02.973Z,59.74
2022-09-25T01:20:41.079Z,60.25
2022-09-25T01:23:20.807Z,60.13
2022-09-25T01:25:55.398Z,60.46
2022-09-25T01:28:29.445Z,61.50
2022-09-25T01:31:03.881Z,61.42
2022-09-25T01:33:35.708Z,60.96
2022-09-25T01:36:06.970Z,61.92
2022-09-25T01:38:42.952Z,61.34
2022-09-25T01:41:27.504Z,61.74
2022-09-25T01:44:10.149Z,60.61
2022-09-25T01:46:44.126Z,61.78
2022-09-25T01:49:22.902Z,61.13
2022-09-25T01:51:52.534Z,62.72
2022-09-25T01:54:32.948Z,63.11
2022-09-25T01:57:22.561Z,61.98
2022-09-25T01:59:56.993Z,61.83
2022-09-25T02:02:30.266Z,61.91
2022-09-25T02:05:02.798Z,61.85
2022-09-25T02:07:34.250Z,62.01
2022-09-25T02:10:14.338Z,61.02
2022-09-25T02:12:47.364Z,61.53
2022-09-25T02:15:35.518Z,62.43
2022-09-25T02:18:26.156Z,63.30
2022-09-25T02:21:00.047Z,62.98
2022-09-25T02:23:32.775Z,62.53
2022-09-25T02:26:09.618Z,62.57
2022-09-25T02:28:36.998Z,62.96
2022-09-25T02:31:08.388Z,62.55
2022-09-25T02:33:35.925Z,62.34
2022-09-25T02:36:03.801Z,62.62
2022-09-25T02:38:33.539Z,64.30
2022-09-25T02:41:03.703Z,63.67
2022-09-25T02:43:46.201Z,63.18
2022-09-25T02:46:19.447Z,62.81
2022-09-25T02:48:53.070Z,63.46
2022-09-25T02:51:34.482Z,64.05
2022-09-25T02:54:05.187Z,63.50
2022-09-25T02:56:35.151Z,63.11
2022-09-25T02:59:06.877Z,63.00
2022-09-25T03:01:35.262Z,63.19
2022-09-25T03:04:03.528Z,63.06
2022-09-25T03:06:31.102Z,63.74
2022-09-25T03:08:58.605Z,63.06
2022-09-25T03:11:28.961Z,62.55
2022-09-25T03:14:00.606Z,62.74
2022-09-25T03:16:49.140Z,62.91
2022-09-25T03:19:16.577Z,63.46
2022-09-25T03:21:44.174Z,62.77
2022-09-25T03:24:11.528Z,62.56
2022-09-25T03:26:40.554Z,61.53
2022-09-25T03:29:08.281Z,63.22
2022-09-25T03:31:35.748Z,63.77
2022-09-25T03:34:03.130Z,64.60
2022-09-25T03:36:30.926Z,63.41
2022-09-25T03:38:59.142Z,62.47
2022-09-25T03:41:28.890Z,62.23
2022-09-25T03:43:56.779Z,63.18
2022-09-25T03:46:26.758Z,63.32
2022-09-25T03:48:54.238Z,62.10
2022-09-25T03:51:22.009Z,62.78
2022-09-25T03:53:50.059Z,62.63
2022-09-25T03:56:20.293Z,62.94
2022-09-25T03:58:48.285Z,62.11
2022-09-25T04:01:15.923Z,62.25
2022-09-25T04:03:47.044Z,63.21
2022-09-25T04:06:18.440Z,62.88
2022-09-25T04:08:46.516Z,63.40
2022-09-25T04:11:15.139Z,63.39
2022-09-25T04:13:44.056Z,62.20
2022-09-25T04:16:12.079Z,62.90
2022-09-25T04:18:41.816Z,63.89
2022-09-25T04:21:10.069Z,63.56
2022-09-25T04:23:37.733Z,64.22
2022-09-25T04:26:05.260Z,62.74
2022-09-25T04:28:33.082Z,62.28
2022-09-25T04:31:00.840Z,62.66
2022-09-25T04:33:46.443Z,63.25
2022-09-25T04:36:19.181Z,64.19
2022-09-25T04:38:48.118Z,64.11
2022-09-25T04:41:16.598Z,62.75
2022-09-25T04:43:43.957Z,62.75
2022-09-25T04:46:16.727Z,62.86
2022-09-25T04:48:47.878Z,63.28
2022-09-25T04:51:15.247Z,62.91
2022-09-25T04:53:43.104Z,62.66
2022-09-25T04:56:15.914Z,62.39
2022-09-25T04:58:45.952Z,61.23
2022-09-25T05:01:13.625Z,62.15
2022-09-25T05:03:41.072Z,61.66
2022-09-25T05:06:08.486Z,61.94
2022-09-25T05:08:36.059Z,62.44
2022-09-25T05:11:03.913Z,62.76
2022-09-25T05:13:31.403Z,61.69
2022-09-25T05:15:59.057Z,62.73
2022-09-25T05:18:26.761Z,62.77
2022-09-25T05:20:54.339Z,61.15
2022-09-25T05:23:22.086Z,61.46
2022-09-25T05:26:02.262Z,62.33
2022-09-25T05:28:31.020Z,62.30
2022-09-25T05:31:04.613Z,61.76
2022-09-25T05:33:32.699Z,62.19
2022-09-25T05:36:04.498Z,63.64
2022-09-25T05:38:32.491Z,63.50
2022-09-25T05:41:05.001Z,62.34
2022-09-25T05:43:32.796Z,62.48
2022-09-25T05:46:00.370Z,61.52
2022-09-25T05:48:27.847Z,61.33
2022-09-25T05:50:56.388Z,61.28
2022-09-25T05:53:23.924Z,61.09
2022-09-25T05:55:55.685Z,61.45
2022-09-25T05:58:23.287Z,61.51
2022-09-25T06:00:50.840Z,61.37
2022-09-25T06:03:18.670Z,60.97
2022-09-25T06:05:46.285Z,59.82
2022-09-25T06:08:13.834Z,59.76
2022-09-25T06:10:41.706Z,58.68
2022-09-25T06:13:09.025Z,58.84
2022-09-25T06:15:37.718Z,59.24
2022-09-25T06:18:05.772Z,59.75
2022-09-25T06:20:33.167Z,59.93
2022-09-25T06:23:03.671Z,59.72
2022-09-25T06:25:32.598Z,59.35
2022-09-25T06:28:00.649Z,59.13
2022-09-25T06:30:34.421Z,58.75
2022-09-25T06:33:10.748Z,58.48
2022-09-25T06:35:41.750Z,58.42
2022-09-25T06:38:09.597Z,58.39
2022-09-25T06:40:38.801Z,58.52
2022-09-25T06:43:07.795Z,58.37
2022-09-25T06:45:35.670Z,58.56
2022-09-25T06:48:13.319Z,59.57
2022-09-25T06:50:44.596Z,58.87
2022-09-25T06:53:12.060Z,59.44
2022-09-25T06:55:39.466Z,58.29
2022-09-25T06:58:08.398Z,56.91
2022-09-25T07:00:35.748Z,56.71
2022-09-25T07:03:21.745Z,56.83
2022-09-25T07:05:49.431Z,56.10
2022-09-25T07:08:17.576Z,55.41
2022-09-25T07:10:51.961Z,55.84
2022-09-25T07:13:24.396Z,55.81
2022-09-25T07:15:56.346Z,56.19
2022-09-25T07:18:24.503Z,55.66
2022-09-25T07:20:52.891Z,55.36
2022-09-25T07:23:21.078Z,54.51
2022-09-25T07:25:49.530Z,54.85
2022-09-25T07:28:18.998Z,54.48
2022-09-25T07:30:46.701Z,54.14
2022-09-25T07:33:14.462Z,54.41
2022-09-25T07:35:41.796Z,53.08
2022-09-25T07:38:09.112Z,52.63
2022-09-25T07:40:36.755Z,51.79
2022-09-25T07:43:04.597Z,51.13
2022-09-25T07:45:32.325Z,49.73
2022-09-25T07:48:01.597Z,48.39
2022-09-25T07:50:29.563Z,47.19
2022-09-25T07:52:57.069Z,48.20
2022-09-25T07:55:24.750Z,47.01
2022-09-25T07:57:53.350Z,46.76
2022-09-25T08:00:20.688Z,47.95
2022-09-25T08:02:55.740Z,47.52
2022-09-25T08:05:23.163Z,47.35
2022-09-25T08:07:50.746Z,47.27
2022-09-25T08:10:18.841Z,47.75
2022-09-25T08:12:46.185Z,47.85
2022-09-25T08:15:16.917Z,48.24
2022-09-25T08:17:44.272Z,48.25
2022-09-25T08:20:11.581Z,48.82
2022-09-25T08:22:39.202Z,48.08
2022-09-25T08:25:06.936Z,48.69
2022-09-25T08:27:39.648Z,48.36
2022-09-25T08:30:09.042Z,48.84
2022-09-25T08:32:36.567Z,48.61
2022-09-25T08:35:04.472Z,49.11
2022-09-25T08:37:32.313Z,49.13
2022-09-25T08:39:59.905Z,49.60
2022-09-25T08:42:33.116Z,48.66
2022-09-25T08:45:22.423Z,48.31
2022-09-25T08:48:10.192Z,48.44
2022-09-25T08:50:37.894Z,48.57
2022-09-25T08:53:15.861Z,48.79
2022-09-25T08:56:02.069Z,48.84
2022-09-25T08:58:34.311Z,48.65
2022-09-25T09:01:04.204Z,49.08
2022-09-25T09:03:32.131Z,49.35
2022-09-25T09:06:02.774Z,49.23
2022-09-25T09:08:31.383Z,49.74
2022-09-25T09:11:13.606Z,48.78
2022-09-25T09:13:58.278Z,48.71
2022-09-25T09:16:47.010Z,48.67
2022-09-25T09:19:14.600Z,48.77
2022-09-25T09:21:47.391Z,50.15
2022-09-25T09:24:37.086Z,48.96
2022-09-25T09:27:23.120Z,49.27
2022-09-25T09:30:15.501Z,49.56
2022-09-25T09:33:01.442Z,50.42
2022-09-25T09:35:42.535Z,50.15
2022-09-25T09:38:44.247Z,50.41
2022-09-25T09:41:44.027Z,50.34
2022-09-25T09:44:40.021Z,50.44
2022-09-25T09:47:39.508Z,51.08
2022-09-25T09:50:43.906Z,51.51
2022-09-25T09:53:34.277Z,52.73
2022-09-25T09:56:14.822Z,52.24
2022-09-25T09:58:57.137Z,52.32
2022-09-25T10:01:40.978Z,54.85
2022-09-25T10:04:24.722Z,55.73
2022-09-25T10:06:55.505Z,55.07
2022-09-25T10:09:25.917Z,54.81
2022-09-25T10:12:07.485Z,54.85
2022-09-25T10:14:38.606Z,54.67
2022-09-25T10:17:05.907Z,54.87
2022-09-25T10:20:03.494Z,55.06
2022-09-25T10:22:37.428Z,55.64
2022-09-25T10:25:06.516Z,54.98
2022-09-25T10:27:41.330Z,56.53
2022-09-25T10:30:11.674Z,56.18
2022-09-25T10:32:43.306Z,56.29
2022-09-25T10:35:19.201Z,56.63
2022-09-25T10:37:54.638Z,57.05
2022-09-25T10:40:28.153Z,56.92
2022-09-25T10:43:24.231Z,57.59
2022-09-25T10:46:12.934Z,55.91
2022-09-25T10:48:59.315Z,56.18
2022-09-25T10:51:26.674Z,55.82
2022-09-25T10:54:13.281Z,55.46
2022-09-25T10:56:40.648Z,55.75
2022-09-25T10:59:19.518Z,54.81
2022-09-25T11:01:47.712Z,55.12
2022-09-25T11:04:21.614Z,54.36
2022-09-25T11:06:52.333Z,54.12
2022-09-25T11:09:22.262Z,52.92
2022-09-25T11:11:50.161Z,53.11
2022-09-25T11:14:45.368Z,53.69
2022-09-25T11:17:32.554Z,52.53
2022-09-25T11:20:31.659Z,53.09
2022-09-25T11:23:24.681Z,53.45
2022-09-25T11:26:16.634Z,53.29
2022-09-25T11:29:07.458Z,52.46
2022-09-25T11:31:43.565Z,52.06
2022-09-25T11:34:34.097Z,56.41
2022-09-25T11:37:30.963Z,56.77
2022-09-25T11:40:29.796Z,56.78
2022-09-25T11:43:14.465Z,58.99
2022-09-25T11:45:51.578Z,59.03
2022-09-25T11:48:51.466Z,60.62
2022-09-25T11:51:39.240Z,60.71
2022-09-25T11:54:45.151Z,59.93
2022-09-25T11:57:18.316Z,59.61
2022-09-25T12:00:06.928Z,61.06
2022-09-25T12:03:01.044Z,59.77
2022-09-25T12:05:49.269Z,60.76
2022-09-25T12:08:38.706Z,61.37
2022-09-25T12:11:45.827Z,61.20
2022-09-25T12:14:17.221Z,61.75
2022-09-25T12:17:00.509Z,63.05
2022-09-25T12:19:52.114Z,63.67
2022-09-25T12:22:39.743Z,64.10
2022-09-25T12:25:48.047Z,63.17
2022-09-25T12:28:37.149Z,63.37
2022-09-25T12:31:23.611Z,64.26
2022-09-25T12:34:06.290Z,65.50
2022-09-25T12:36:42.723Z,65.09
2022-09-25T12:39:20.207Z,63.93
2022-09-25T12:41:55.741Z,66.85
2022-09-25T12:44:50.336Z,67.93
2022-09-25T12:47:37.570Z,66.87
2022-09-25T12:50:14.990Z,68.19
2022-09-25T12:53:05.674Z,67.81
2022-09-25T12:55:41.058Z,67.68
2022-09-25T12:58:23.113Z,67.77
2022-09-25T13:00:56.135Z,68.49
2022-09-25T13:03:46.245Z,69.16
2022-09-25T13:06:25.420Z,68.57
2022-09-25T13:08:57.939Z,71.08
2022-09-25T13:12:02.810Z,72.29
2022-09-25T13:14:34.684Z,70.41
2022-09-25T13:17:02.507Z,72.19
2022-09-25T13:19:33.266Z,72.38
2022-09-25T13:22:24.915Z,71.16
2022-09-25T13:25:02.326Z,71.10
2022-09-25T13:27:37.395Z,71.07
2022-09-25T13:30:05.768Z,70.83
2022-09-25T13:32:35.962Z,70.71
2022-09-25T13:35:06.093Z,69.32
2022-09-25T13:37:36.102Z,70.17
2022-09-25T13:40:35.979Z,70.31
2022-09-25T13:43:24.335Z,70.12
2022-09-25T13:46:15.073Z,70.00
2022-09-25T13:48:42.848Z,70.34
2022-09-25T13:51:18.031Z,69.71
2022-09-25T13:54:03.784Z,71.20
2022-09-25T13:56:34.269Z,70.37
2022-09-25T13:59:20.363Z,70.89
2022-09-25T14:01:57.708Z,72.16
2022-09-25T14:04:34.071Z,71.55
2022-09-25T14:07:13.449Z,71.79
2022-09-25T14:09:46.403Z,70.92
2022-09-25T14:12:23.538Z,72.13
2022-09-25T14:14:56.002Z,71.40
2022-09-25T14:17:24.926Z,71.27
2022-09-25T14:19:54.131Z,72.31
2022-09-25T14:22:46.113Z,72.42
2022-09-25T14:25:40.627Z,71.73
2022-09-25T14:28:25.600Z,71.05
2022-09-25T14:31:23.932Z,71.40
2022-09-25T14:34:04.448Z,71.40
2022-09-25T14:36:37.163Z,71.06
2022-09-25T14:39:19.749Z,71.75
2022-09-25T14:42:06.430Z,72.58
2022-09-25T14:45:06.337Z,73.11
2022-09-25T14:47:38.844Z,72.56
2022-09-25T14:50:06.322Z,72.60
2022-09-25T14:52:35.046Z,73.03
2022-09-25T14:55:02.387Z,73.84
2022-09-25T14:57:37.170Z,71.31
2022-09-25T15:00:07.035Z,73.23
2022-09-25T15:02:38.047Z,73.46
2022-09-25T15:05:34.283Z,73.02
2022-09-25T15:08:02.840Z,71.98
2022-09-25T15:10:34.399Z,72.28
2022-09-25T15:13:14.063Z,72.02
2022-09-25T15:16:01.964Z,72.27
2022-09-25T15:18:29.375Z,71.87
2022-09-25T15:20:56.965Z,71.75
2022-09-25T15:23:24.325Z,72.51
2022-09-25T15:25:53.999Z,73.13
2022-09-25T15:28:24.545Z,73.33
2022-09-25T15:31:00.472Z,72.20
2022-09-25T15:33:29.913Z,72.64
2022-09-25T15:35:58.772Z,73.72
2022-09-25T15:38:34.200Z,75.51
2022-09-25T15:41:01.990Z,76.09
2022-09-25T15:43:32.289Z,76.58
2022-09-25T15:46:09.174Z,76.53
2022-09-25T15:48:40.544Z,75.99
2022-09-25T15:51:21.412Z,76.75
2022-09-25T15:53:59.071Z,75.77
2022-09-25T15:56:27.928Z,76.04
2022-09-25T15:59:18.428Z,78.23
2022-09-25T16:02:04.457Z,79.15
2022-09-25T16:04:47.224Z,78.04
2022-09-25T16:07:36.556Z,78.02
2022-09-25T16:10:12.168Z,80.58
2022-09-25T16:12:42.464Z,81.77
2022-09-25T16:15:26.626Z,80.20
2022-09-25T16:18:02.845Z,78.60
2022-09-25T16:20:34.533Z,75.76
2022-09-25T16:23:04.506Z,73.39
2022-09-25T16:25:42.468Z,74.37
2022-09-25T16:28:27.889Z,72.89
2022-09-25T16:31:04.579Z,73.58
2022-09-25T16:33:40.080Z,72.71
2022-09-25T16:36:17.543Z,73.19
2022-09-25T16:39:11.111Z,73.38
2022-09-25T16:41:40.297Z,71.48
2022-09-25T16:44:15.147Z,72.81
2022-09-25T16:46:43.487Z,72.40
2022-09-25T16:49:12.269Z,73.03
2022-09-25T16:51:45.889Z,72.48
2022-09-25T16:54:15.107Z,71.66
2022-09-25T16:56:43.079Z,72.29
2022-09-25T16:59:17.399Z,74.65
2022-09-25T17:01:45.868Z,74.98
2022-09-25T17:04:14.138Z,75.46
2022-09-25T17:06:44.382Z,75.45
2022-09-25T17:09:12.737Z,74.73
2022-09-25T17:11:40.630Z,74.38
2022-09-25T17:14:08.589Z,73.81
2022-09-25T17:16:36.226Z,73.06
2022-09-25T17:19:08.440Z,74.98
2022-09-25T17:21:36.025Z,74.24
2022-09-25T17:24:03.406Z,74.40
2022-09-25T17:26:30.857Z,73.82
2022-09-25T17:28:58.493Z,75.47
2022-09-25T17:31:25.985Z,74.89
2022-09-25T17:33:53.369Z,75.39
2022-09-25T17:36:21.096Z,75.75
2022-09-25T17:38:48.453Z,75.65
2022-09-25T17:41:18.224Z,76.48
2022-09-25T17:43:45.906Z,75.79
2022-09-25T17:46:16.163Z,76.37
2022-09-25T17:48:43.754Z,75.66
2022-09-25T17:51:18.013Z,74.36
2022-09-25T17:53:46.476Z,73.64
2022-09-25T17:56:14.045Z,73.34
2022-09-25T17:58:43.230Z,73.97
2022-09-25T18:01:24.609Z,74.58
2022-09-25T18:03:53.432Z,76.69
2022-09-25T18:06:20.767Z,76.66
2022-09-25T18:08:48.424Z,80.63
2022-09-25T18:11:16.196Z,84.11
2022-09-25T18:13:43.944Z,80.17
2022-09-25T18:16:22.054Z,79.33
2022-09-25T18:19:08.520Z,78.19
2022-09-25T18:21:54.215Z,77.54
2022-09-25T18:24:21.850Z,79.92
2022-09-25T18:26:50.197Z,77.36
2022-09-25T18:29:18.192Z,80.95
2022-09-25T18:31:46.549Z,78.72
2022-09-25T18:34:14.667Z,80.10
2022-09-25T18:36:42.359Z,77.27
2022-09-25T18:39:10.040Z,78.68
2022-09-25T18:41:37.908Z,83.26
2022-09-25T18:44:08.732Z,80.43
2022-09-25T18:46:38.254Z,82.58
2022-09-25T18:49:06.403Z,80.83
2022-09-25T18:51:33.869Z,77.17
2022-09-25T18:54:01.727Z,77.77
2022-09-25T18:56:29.838Z,77.77
2022-09-25T18:58:57.159Z,76.26
2022-09-25T19:01:25.204Z,78.23
2022-09-25T19:03:53.676Z,76.23
2022-09-25T19:06:21.138Z,74.72
2022-09-25T19:08:56.752Z,75.11
2022-09-25T19:11:24.755Z,77.51
2022-09-25T19:13:52.918Z,82.14
2022-09-25T19:16:20.568Z,75.75
2022-09-25T19:18:50.390Z,79.22
2022-09-25T19:21:21.192Z,76.26
2022-09-25T19:23:50.468Z,74.43
2022-09-25T19:26:20.940Z,75.16
2022-09-25T19:28:48.390Z,76.84
2022-09-25T19:31:17.735Z,75.82
2022-09-25T19:33:45.450Z,75.11
2022-09-25T19:36:26.613Z,72.03
2022-09-25T19:38:55.216Z,73.02
2022-09-25T19:41:30.556Z,75.59
2022-09-25T19:43:59.446Z,78.50
2022-09-25T19:46:28.798Z,75.38
2022-09-25T19:48:56.156Z,75.74
2022-09-25T19:51:24.221Z,77.67
2022-09-25T19:53:51.961Z,76.08
2022-09-25T19:56:19.637Z,73.93
2022-09-25T19:58:49.624Z,71.53
2022-09-25T20:01:19.001Z,72.59
2022-09-25T20:03:46.593Z,73.70
2022-09-25T20:06:16.034Z,72.81
2022-09-25T20:08:43.628Z,75.14
2022-09-25T20:11:22.024Z,76.61
2022-09-25T20:13:50.803Z,74.32
2022-09-25T20:16:19.933Z,74.39
2022-09-25T20:18:50.740Z,74.87
2022-09-25T20:21:21.234Z,75.46
2022-09-25T20:23:52.604Z,74.83
2022-09-25T20:26:20.651Z,72.71
2022-09-25T20:28:52.666Z,71.46
2022-09-25T20:31:20.517Z,73.90
2022-09-25T20:33:47.938Z,72.76
2022-09-25T20:36:15.613Z,73.69
2022-09-25T20:38:43.298Z,72.90
2022-09-25T20:41:11.757Z,71.86
2022-09-25T20:43:39.463Z,71.62
2022-09-25T20:46:09.244Z,71.72
2022-09-25T20:48:37.890Z,70.43
2022-09-25T20:51:09.673Z,71.76
2022-09-25T20:53:37.597Z,76.41
2022-09-25T20:56:12.517Z,73.05
2022-09-25T20:58:41.106Z,76.59
2022-09-25T21:01:10.174Z,77.57
2022-09-25T21:03:38.588Z,73.86
2022-09-25T21:06:08.134Z,72.98
2022-09-25T21:08:35.637Z,75.03
2022-09-25T21:11:03.030Z,73.05
2022-09-25T21:13:31.709Z,71.51
2022-09-25T21:16:06.251Z,70.79
2022-09-25T21:18:35.694Z,70.27
2022-09-25T21:21:04.414Z,70.22
2022-09-25T21:23:31.873Z,72.92
2022-09-25T21:26:04.438Z,74.64
2022-09-25T21:28:32.487Z,72.06
2022-09-25T21:31:13.929Z,71.55
2022-09-25T21:33:41.391Z,71.44
2022-09-25T21:36:10.026Z,70.05
2022-09-25T21:38:37.372Z,71.84
2022-09-25T21:41:06.620Z,69.79
2022-09-25T21:43:38.298Z,72.86
2022-09-25T21:46:16.451Z,72.33
2022-09-25T21:48:48.825Z,71.15
2022-09-25T21:51:16.326Z,73.88
2022-09-25T21:53:44.074Z,72.80
2022-09-25T21:56:14.340Z,77.31
2022-09-25T21:58:41.725Z,73.73
2022-09-25T22:01:12.294Z,75.70
2022-09-25T22:03:41.484Z,73.05
2022-09-25T22:06:10.893Z,74.67
2022-09-25T22:08:41.250Z,72.91
2022-09-25T22:11:09.098Z,70.51
2022-09-25T22:13:37.356Z,76.07
2022-09-25T22:16:10.907Z,75.93
2022-09-25T22:18:43.324Z,73.58
2022-09-25T22:21:11.860Z,70.93
2022-09-25T22:23:39.431Z,73.11
2022-09-25T22:26:06.795Z,71.66
2022-09-25T22:28:34.818Z,71.25
2022-09-25T22:31:12.514Z,71.71
2022-09-25T22:33:40.023Z,73.31
2022-09-25T22:36:08.312Z,74.86
2022-09-25T22:38:35.684Z,75.66
2022-09-25T22:41:07.784Z,74.98
2022-09-25T22:43:35.574Z,76.61
2022-09-25T22:46:03.164Z,73.63
2022-09-25T22:48:30.730Z,73.93
2022-09-25T22:51:03.792Z,74.04
2022-09-25T22:53:32.103Z,73.69
2022-09-25T22:56:21.065Z,71.69
2022-09-25T22:58:49.955Z,76.87
2022-09-25T23:01:23.224Z,76.92
2022-09-25T23:03:57.702Z,76.04
2022-09-25T23:06:25.980Z,73.84
2022-09-25T23:08:54.242Z,74.43
2022-09-25T23:11:22.002Z,78.46
2022-09-25T23:13:59.801Z,74.96
2022-09-25T23:16:27.475Z,78.29
2022-09-25T23:18:58.258Z,75.13
2022-09-25T23:21:26.033Z,74.92
2022-09-25T23:23:57.154Z,75.39
2022-09-25T23:26:24.760Z,77.97
2022-09-25T23:28:52.136Z,78.09
2022-09-25T23:31:19.709Z,73.92
2022-09-25T23:33:47.418Z,72.46
2022-09-25T23:36:17.591Z,74.72
2022-09-25T23:38:45.013Z,76.57
2022-09-25T23:41:20.072Z,73.75
2022-09-25T23:43:47.930Z,74.41
2022-09-25T23:46:16.083Z,72.39
2022-09-25T23:48:43.594Z,72.13
2022-09-25T23:51:11.354Z,71.40
2022-09-25T23:53:40.450Z,72.91
2022-09-25T23:56:09.502Z,73.94
2022-09-25T23:58:36.832Z,72.62
